Time;durP1;ratioP1;P1;durP2;ratioP2;P2;SDS_P1;SDS_P2;PMS_P1;PMS_P2;Temp;Humidity;BMP_temperature;BMP_pressure;BME280_temperature;BME280_humidity;BME280_pressure;Samples;Min_cycle;Max_cycle;Signal;HPM_P1;HPM_P2
2023/10/24 00:01:22;;;;;;;15.53;4.30;;;;;;;;;;6302828;22;20018;-40
2023/10/24 00:03:50;;;;;;;14.85;3.97;;;;;;;;;;6308772;22;20459;-40
2023/10/24 00:06:18;;;;;;;14.40;3.92;;;;;;;;;;6304673;22;20445;-41
2023/10/24 00:08:46;;;;;;;14.75;4.55;;;;;;;;;;6303332;22;20076;-40
2023/10/24 00:11:15;;;;;;;12.55;4.20;;;;;;;;;;6304262;22;20435;-40
2023/10/24 00:13:42;;;;;;;14.90;3.83;;;;;;;;;;6303115;22;20022;-40
2023/10/24 00:16:10;;;;;;;13.30;3.90;;;;;;;;;;6304627;22;20014;-40
2023/10/24 00:18:39;;;;;;;19.90;3.97;;;;;;;;;;6309207;22;20018;-41
2023/10/24 00:21:22;;;;;;;15.02;3.80;;;;;;;;;;6233019;22;20026;-40
2023/10/24 00:23:50;;;;;;;8.98;3.28;;;;;;;;;;6299872;22;20660;-40
2023/10/24 00:26:17;;;;;;;15.73;3.93;;;;;;;;;;6300110;22;20015;-40
2023/10/24 00:28:47;;;;;;;16.08;3.33;;;;;;;;;;6309802;22;20015;-40
2023/10/24 00:31:15;;;;;;;10.88;3.75;;;;;;;;;;6298164;22;20050;-40
2023/10/24 00:33:46;;;;;;;14.82;3.25;;;;;;;;;;6305935;22;20021;-41
2023/10/24 00:36:14;;;;;;;12.00;3.22;;;;;;;;;;6305251;22;20014;-40
2023/10/24 00:38:41;;;;;;;13.00;3.30;;;;;;;;;;6300368;22;20018;-40
2023/10/24 00:41:09;;;;;;;9.80;3.10;;;;;;;;;;6306309;22;20026;-41
2023/10/24 00:43:37;;;;;;;12.23;3.38;;;;;;;;;;6300658;22;20019;-40
2023/10/24 00:46:06;;;;;;;11.43;3.40;;;;;;;;;;6313726;22;20019;-40
2023/10/24 00:48:34;;;;;;;12.50;4.45;;;;;;;;;;6266636;22;20015;-40
2023/10/24 00:51:04;;;;;;;13.10;4.57;;;;;;;;;;6301457;22;20029;-41
2023/10/24 00:53:32;;;;;;;14.38;4.00;;;;;;;;;;6266734;22;20350;-41
2023/10/24 00:56:00;;;;;;;10.82;3.95;;;;;;;;;;6309993;22;20027;-40
2023/10/24 00:58:28;;;;;;;15.30;4.05;;;;;;;;;;6298393;22;20434;-41
2023/10/24 01:00:57;;;;;;;10.32;4.25;;;;;;;;;;6306527;22;20388;-41
2023/10/24 01:03:27;;;;;;;15.50;4.40;;;;;;;;;;6311168;22;20026;-42
2023/10/24 01:05:55;;;;;;;12.23;3.90;;;;;;;;;;6300185;22;20245;-40
2023/10/24 01:08:24;;;;;;;20.90;4.60;;;;;;;;;;6312898;22;20019;-41
2023/10/24 01:10:52;;;;;;;12.10;3.97;;;;;;;;;;6288480;22;20018;-41
2023/10/24 01:13:19;;;;;;;14.65;4.22;;;;;;;;;;6300650;22;20015;-42
2023/10/24 01:15:47;;;;;;;12.13;4.17;;;;;;;;;;6307327;22;20014;-42
2023/10/24 01:18:15;;;;;;;17.52;4.60;;;;;;;;;;6275574;22;20023;-40
2023/10/24 01:20:43;;;;;;;15.32;4.82;;;;;;;;;;6303330;22;20021;-42
2023/10/24 01:23:12;;;;;;;16.33;5.82;;;;;;;;;;6297722;22;20019;-40
2023/10/24 01:25:43;;;;;;;13.98;5.10;;;;;;;;;;6307114;22;20402;-41
2023/10/24 01:28:11;;;;;;;21.20;6.83;;;;;;;;;;6278565;22;20072;-39
2023/10/24 01:30:39;;;;;;;20.45;5.43;;;;;;;;;;6298081;22;20110;-40
2023/10/24 01:33:07;;;;;;;16.45;5.53;;;;;;;;;;6302851;22;20045;-40
2023/10/24 01:35:35;;;;;;;16.85;6.00;;;;;;;;;;6300243;22;20030;-42
2023/10/24 01:38:02;;;;;;;20.70;6.13;;;;;;;;;;6282056;22;20473;-41
2023/10/24 01:40:31;;;;;;;18.43;5.70;;;;;;;;;;6313124;22;20170;-42
2023/10/24 01:42:59;;;;;;;16.65;5.65;;;;;;;;;;6302794;22;20156;-41
2023/10/24 01:45:26;;;;;;;15.80;5.72;;;;;;;;;;6296299;22;20014;-41
2023/10/24 01:47:54;;;;;;;18.35;6.30;;;;;;;;;;6302436;22;20019;-42
2023/10/24 01:50:22;;;;;;;16.63;5.32;;;;;;;;;;6289556;22;20015;-41
2023/10/24 01:52:49;;;;;;;23.97;6.17;;;;;;;;;;6310484;22;20047;-41
2023/10/24 01:55:17;;;;;;;15.65;5.50;;;;;;;;;;6312933;22;20377;-41
2023/10/24 01:57:47;;;;;;;16.13;6.20;;;;;;;;;;6304818;22;20034;-41
2023/10/24 02:00:15;;;;;;;34.00;7.20;;;;;;;;;;6307818;22;20039;-42
2023/10/24 02:02:42;;;;;;;17.50;5.93;;;;;;;;;;6306336;22;20014;-41
2023/10/24 02:05:12;;;;;;;14.97;5.07;;;;;;;;;;6310247;22;20015;-40
2023/10/24 02:07:39;;;;;;;17.98;5.70;;;;;;;;;;6313337;22;20019;-40
2023/10/24 02:10:07;;;;;;;18.80;6.03;;;;;;;;;;6312622;22;20014;-40
2023/10/24 02:12:35;;;;;;;18.38;6.30;;;;;;;;;;6310238;22;20057;-41
2023/10/24 02:15:05;;;;;;;19.73;6.10;;;;;;;;;;6297558;22;20228;-41
2023/10/24 02:17:32;;;;;;;18.67;6.27;;;;;;;;;;6317089;22;20038;-41
2023/10/24 02:20:02;;;;;;;16.70;5.35;;;;;;;;;;6308273;22;20046;-40
2023/10/24 02:22:29;;;;;;;16.70;5.68;;;;;;;;;;6314399;22;20653;-41
2023/10/24 02:24:57;;;;;;;18.88;5.80;;;;;;;;;;6307681;22;20025;-40
2023/10/24 02:27:25;;;;;;;20.48;5.78;;;;;;;;;;6314728;22;20068;-41
2023/10/24 02:29:53;;;;;;;17.77;5.60;;;;;;;;;;6300199;22;20022;-41
2023/10/24 02:32:22;;;;;;;15.90;5.55;;;;;;;;;;6312658;22;20011;-43
2023/10/24 02:34:50;;;;;;;16.48;5.82;;;;;;;;;;6307799;22;20043;-40
2023/10/24 02:37:17;;;;;;;16.17;5.40;;;;;;;;;;6309129;22;20068;-41
2023/10/24 02:39:45;;;;;;;16.65;5.60;;;;;;;;;;6302306;22;20430;-41
2023/10/24 02:42:13;;;;;;;14.97;4.73;;;;;;;;;;6312115;22;20042;-43
2023/10/24 02:44:41;;;;;;;13.88;4.72;;;;;;;;;;6310284;22;20211;-41
2023/10/24 02:47:09;;;;;;;18.80;5.07;;;;;;;;;;6322189;22;20023;-40
2023/10/24 02:49:45;;;;;;;15.05;4.90;;;;;;;;;;6299938;22;20351;-40
2023/10/24 02:52:12;;;;;;;16.48;4.85;;;;;;;;;;6321998;22;20086;-40
2023/10/24 02:54:40;;;;;;;18.93;5.80;;;;;;;;;;6294336;22;20010;-40
2023/10/24 02:57:09;;;;;;;18.23;5.53;;;;;;;;;;6309203;22;20642;-41
2023/10/24 02:59:38;;;;;;;20.70;5.93;;;;;;;;;;6308178;22;20034;-40
2023/10/24 03:02:05;;;;;;;22.35;7.20;;;;;;;;;;6279492;22;20015;-41
2023/10/24 03:04:35;;;;;;;28.80;6.93;;;;;;;;;;6309389;22;20015;-43
2023/10/24 03:07:04;;;;;;;18.30;7.00;;;;;;;;;;6315378;22;20027;-41
2023/10/24 03:09:31;;;;;;;17.33;6.10;;;;;;;;;;6296960;22;20015;-42
2023/10/24 03:11:59;;;;;;;22.60;7.55;;;;;;;;;;6309478;22;20015;-40
2023/10/24 03:14:27;;;;;;;16.17;6.60;;;;;;;;;;6297092;22;20465;-42
2023/10/24 03:16:55;;;;;;;19.13;7.95;;;;;;;;;;6293167;22;20015;-42
2023/10/24 03:19:24;;;;;;;18.33;7.20;;;;;;;;;;6311215;22;20353;-41
2023/10/24 03:21:52;;;;;;;23.50;7.30;;;;;;;;;;6302957;22;20022;-42
2023/10/24 03:24:21;;;;;;;21.83;8.30;;;;;;;;;;6318240;22;20373;-41
2023/10/24 03:26:50;;;;;;;21.30;8.73;;;;;;;;;;6309481;22;20011;-43
2023/10/24 03:29:18;;;;;;;18.23;8.35;;;;;;;;;;6272408;22;20014;-40
2023/10/24 03:31:46;;;;;;;21.10;9.27;;;;;;;;;;6313108;22;20026;-42
2023/10/24 03:34:13;;;;;;;21.42;8.52;;;;;;;;;;6305418;22;20021;-43
2023/10/24 03:36:41;;;;;;;23.90;9.05;;;;;;;;;;6314168;22;20068;-41
2023/10/24 03:39:09;;;;;;;23.92;8.88;;;;;;;;;;6286535;22;20346;-41
2023/10/24 03:41:38;;;;;;;23.63;8.77;;;;;;;;;;6306784;22;20433;-41
2023/10/24 03:44:05;;;;;;;20.87;7.33;;;;;;;;;;6305214;22;20177;-40
2023/10/24 03:46:33;;;;;;;24.25;8.45;;;;;;;;;;6305338;22;20054;-41
2023/10/24 03:49:02;;;;;;;21.70;7.85;;;;;;;;;;6296516;22;20023;-40
2023/10/24 03:51:30;;;;;;;17.50;7.70;;;;;;;;;;6271320;22;20356;-43
2023/10/24 03:53:58;;;;;;;22.83;8.13;;;;;;;;;;6305743;22;20022;-42
2023/10/24 03:56:27;;;;;;;19.43;7.77;;;;;;;;;;6315040;22;20025;-41
2023/10/24 03:58:57;;;;;;;16.90;7.93;;;;;;;;;;6315306;22;20019;-42
2023/10/24 04:01:25;;;;;;;22.25;8.00;;;;;;;;;;6310539;22;20346;-41
2023/10/24 04:03:53;;;;;;;21.73;7.63;;;;;;;;;;6308063;22;20619;-41
2023/10/24 04:06:21;;;;;;;21.50;7.65;;;;;;;;;;6310369;22;20011;-41
2023/10/24 04:08:52;;;;;;;20.97;7.97;;;;;;;;;;6307581;22;20447;-42
2023/10/24 04:11:20;;;;;;;23.05;7.65;;;;;;;;;;6313562;22;20518;-41
2023/10/24 04:13:48;;;;;;;22.70;7.95;;;;;;;;;;6300768;22;20015;-41
2023/10/24 04:16:17;;;;;;;18.63;7.68;;;;;;;;;;6303016;22;20015;-43
2023/10/24 04:18:45;;;;;;;20.88;8.15;;;;;;;;;;6299309;22;20038;-41
2023/10/24 04:21:14;;;;;;;19.90;6.93;;;;;;;;;;6284663;22;20327;-41
2023/10/24 04:23:42;;;;;;;21.70;7.78;;;;;;;;;;6306737;22;20019;-41
2023/10/24 04:26:10;;;;;;;21.65;7.85;;;;;;;;;;6272576;22;20015;-41
2023/10/24 04:28:38;;;;;;;19.80;7.72;;;;;;;;;;6305775;22;20442;-41
2023/10/24 04:31:09;;;;;;;21.77;7.75;;;;;;;;;;6300725;22;20653;-40
2023/10/24 04:33:39;;;;;;;20.60;7.63;;;;;;;;;;6299091;22;20426;-41
2023/10/24 04:36:09;;;;;;;20.13;7.72;;;;;;;;;;6303186;22;20014;-41
2023/10/24 04:38:37;;;;;;;21.60;8.38;;;;;;;;;;6303374;22;20022;-41
2023/10/24 04:41:05;;;;;;;19.50;8.27;;;;;;;;;;6299704;22;20026;-41
2023/10/24 04:43:33;;;;;;;24.27;8.18;;;;;;;;;;6287873;22;20248;-40
2023/10/24 04:46:00;;;;;;;22.53;8.20;;;;;;;;;;6296831;22;20011;-41
2023/10/24 04:48:29;;;;;;;20.83;7.88;;;;;;;;;;6310182;22;20448;-41
2023/10/24 04:50:58;;;;;;;22.20;8.70;;;;;;;;;;6289196;22;20014;-41
2023/10/24 04:53:25;;;;;;;21.17;7.60;;;;;;;;;;6308664;22;20357;-41
2023/10/24 04:55:53;;;;;;;20.92;8.63;;;;;;;;;;6294998;22;20484;-41
2023/10/24 04:58:21;;;;;;;20.30;8.23;;;;;;;;;;6308791;22;20015;-41
2023/10/24 05:00:49;;;;;;;20.63;9.07;;;;;;;;;;6295943;22;20444;-40
2023/10/24 05:03:16;;;;;;;23.70;9.63;;;;;;;;;;6305766;22;20082;-41
2023/10/24 05:05:44;;;;;;;21.17;8.93;;;;;;;;;;6299429;22;20038;-41
2023/10/24 05:08:13;;;;;;;21.17;9.25;;;;;;;;;;6307447;22;20053;-40
2023/10/24 05:10:41;;;;;;;23.20;8.67;;;;;;;;;;6291119;22;20018;-41
2023/10/24 05:13:09;;;;;;;21.27;9.57;;;;;;;;;;6307153;22;20426;-41
2023/10/24 05:15:36;;;;;;;20.83;9.45;;;;;;;;;;6302015;22;20421;-41
2023/10/24 05:18:04;;;;;;;22.15;8.38;;;;;;;;;;6304688;22;20084;-43
2023/10/24 05:20:31;;;;;;;24.50;9.10;;;;;;;;;;6301910;22;20114;-42
2023/10/24 05:22:59;;;;;;;23.00;7.97;;;;;;;;;;6308966;22;20041;-40
2023/10/24 05:25:28;;;;;;;23.83;8.73;;;;;;;;;;6298877;22;20027;-41
2023/10/24 05:27:56;;;;;;;24.33;9.75;;;;;;;;;;6312588;22;20050;-41
2023/10/24 05:30:23;;;;;;;24.88;9.45;;;;;;;;;;6291901;22;20038;-41
2023/10/24 05:32:51;;;;;;;21.70;10.07;;;;;;;;;;6299994;22;20076;-42
2023/10/24 05:35:19;;;;;;;24.00;8.57;;;;;;;;;;6292479;22;20018;-41
2023/10/24 05:37:49;;;;;;;21.83;8.38;;;;;;;;;;6300176;22;20022;-40
2023/10/24 05:40:18;;;;;;;20.98;8.90;;;;;;;;;;6299269;22;20352;-41
2023/10/24 05:42:47;;;;;;;21.35;8.82;;;;;;;;;;6299982;22;20011;-41
2023/10/24 05:45:17;;;;;;;19.65;8.80;;;;;;;;;;6296614;22;20014;-41
2023/10/24 05:47:46;;;;;;;23.30;8.50;;;;;;;;;;6311713;22;20014;-41
2023/10/24 05:50:17;;;;;;;19.67;9.50;;;;;;;;;;6308797;22;20084;-41
2023/10/24 05:52:44;;;;;;;22.55;9.20;;;;;;;;;;6303767;22;20022;-42
2023/10/24 05:55:12;;;;;;;22.98;8.95;;;;;;;;;;6301567;22;20047;-42
2023/10/24 05:57:40;;;;;;;22.38;9.30;;;;;;;;;;6278945;22;20015;-41
2023/10/24 06:00:13;;;;;;;18.37;8.37;;;;;;;;;;6302078;22;20019;-41
2023/10/24 06:02:40;;;;;;;21.00;9.55;;;;;;;;;;6309992;22;20015;-41
2023/10/24 06:05:09;;;;;;;22.50;9.30;;;;;;;;;;6298605;22;20744;-41
2023/10/24 06:07:37;;;;;;;23.30;9.38;;;;;;;;;;6294391;22;20030;-42
2023/10/24 06:10:06;;;;;;;20.58;8.40;;;;;;;;;;6296529;22;20037;-41
2023/10/24 06:12:34;;;;;;;20.33;9.13;;;;;;;;;;6266346;22;20090;-41
2023/10/24 06:15:03;;;;;;;19.75;8.18;;;;;;;;;;6290335;22;20086;-41
2023/10/24 06:17:32;;;;;;;22.80;9.38;;;;;;;;;;6308960;22;20116;-43
2023/10/24 06:20:00;;;;;;;20.40;9.00;;;;;;;;;;6267809;22;20038;-41
2023/10/24 06:22:29;;;;;;;22.13;8.65;;;;;;;;;;6302724;22;20088;-41
2023/10/24 06:25:01;;;;;;;22.17;9.40;;;;;;;;;;6298283;22;20022;-41
2023/10/24 06:27:28;;;;;;;21.40;9.35;;;;;;;;;;6312197;22;20025;-41
2023/10/24 06:29:56;;;;;;;19.63;8.07;;;;;;;;;;6298314;22;20072;-41
2023/10/24 06:32:24;;;;;;;19.48;7.97;;;;;;;;;;6298593;22;20014;-41
2023/10/24 06:34:53;;;;;;;21.17;8.23;;;;;;;;;;6295890;22;20412;-41
2023/10/24 06:37:21;;;;;;;19.63;8.30;;;;;;;;;;6302538;22;20022;-43
2023/10/24 06:39:49;;;;;;;21.58;8.43;;;;;;;;;;6305268;22;20011;-42
2023/10/24 06:42:17;;;;;;;17.88;7.43;;;;;;;;;;6305008;22;20037;-42
2023/10/24 06:44:44;;;;;;;19.25;7.88;;;;;;;;;;6302812;22;20015;-46
2023/10/24 06:47:12;;;;;;;20.20;7.78;;;;;;;;;;6299089;22;20250;-43
2023/10/24 06:49:39;;;;;;;17.90;6.50;;;;;;;;;;6287675;22;20301;-43
2023/10/24 06:52:09;;;;;;;18.30;7.70;;;;;;;;;;6299366;22;20018;-41
2023/10/24 06:54:36;;;;;;;25.05;7.97;;;;;;;;;;6296582;22;20011;-41
2023/10/24 06:57:04;;;;;;;15.80;7.03;;;;;;;;;;6287366;22;20014;-41
2023/10/24 06:59:32;;;;;;;19.52;8.00;;;;;;;;;;6301357;22;20018;-42
2023/10/24 07:02:00;;;;;;;18.40;7.57;;;;;;;;;;6294234;22;20033;-41
2023/10/24 07:04:27;;;;;;;17.20;7.20;;;;;;;;;;6266276;22;20703;-41
2023/10/24 07:06:55;;;;;;;18.58;7.72;;;;;;;;;;6300081;22;20323;-41
2023/10/24 07:09:24;;;;;;;15.57;7.32;;;;;;;;;;6301989;22;20022;-41
2023/10/24 07:11:52;;;;;;;17.42;6.72;;;;;;;;;;6301763;22;20525;-41
2023/10/24 07:14:20;;;;;;;18.10;7.27;;;;;;;;;;6293234;22;20018;-41
2023/10/24 07:16:49;;;;;;;18.85;7.43;;;;;;;;;;6311465;22;20011;-42
2023/10/24 07:19:18;;;;;;;18.75;7.30;;;;;;;;;;6302050;22;20010;-42
2023/10/24 07:21:46;;;;;;;20.83;7.60;;;;;;;;;;6304555;22;20019;-42
2023/10/24 07:24:13;;;;;;;19.58;7.43;;;;;;;;;;6305554;22;20023;-43
2023/10/24 07:26:44;;;;;;;20.73;8.30;;;;;;;;;;6303151;22;20014;-42
2023/10/24 07:29:13;;;;;;;20.38;7.82;;;;;;;;;;6307538;22;20023;-43
2023/10/24 07:31:40;;;;;;;18.45;7.72;;;;;;;;;;6307504;22;20022;-41
2023/10/24 07:34:08;;;;;;;19.02;8.32;;;;;;;;;;6305321;22;20014;-41
2023/10/24 07:36:36;;;;;;;20.05;7.90;;;;;;;;;;6298634;22;20069;-41
2023/10/24 07:39:05;;;;;;;16.63;8.07;;;;;;;;;;6303452;22;20208;-41
2023/10/24 07:41:33;;;;;;;19.20;7.75;;;;;;;;;;6298428;22;20403;-41
2023/10/24 07:44:02;;;;;;;20.25;7.22;;;;;;;;;;6302422;22;20044;-41
2023/10/24 07:46:30;;;;;;;17.67;7.20;;;;;;;;;;6294767;22;20029;-41
2023/10/24 07:48:58;;;;;;;17.67;8.00;;;;;;;;;;6300007;22;20446;-41
2023/10/24 07:51:27;;;;;;;18.77;7.60;;;;;;;;;;6261263;22;20022;-42
2023/10/24 07:54:00;;;;;;;19.27;7.68;;;;;;;;;;6289287;22;20445;-42
2023/10/24 07:56:29;;;;;;;18.90;7.78;;;;;;;;;;6283765;22;20042;-41
2023/10/24 07:58:56;;;;;;;19.33;7.72;;;;;;;;;;6287735;22;20050;-43
2023/10/24 08:01:27;;;;;;;19.58;8.90;;;;;;;;;;6284932;22;20015;-43
2023/10/24 08:03:54;;;;;;;17.27;7.13;;;;;;;;;;6258295;22;20015;-42
2023/10/24 08:06:22;;;;;;;19.13;7.97;;;;;;;;;;6278929;22;20025;-41
2023/10/24 08:08:51;;;;;;;19.38;7.82;;;;;;;;;;6273151;22;20018;-42
2023/10/24 08:11:19;;;;;;;17.88;8.13;;;;;;;;;;6273384;22;20064;-41
2023/10/24 08:13:46;;;;;;;19.48;7.68;;;;;;;;;;6272534;22;20026;-42
2023/10/24 08:16:14;;;;;;;17.80;7.20;;;;;;;;;;6276563;22;20023;-41
2023/10/24 08:18:44;;;;;;;17.83;7.53;;;;;;;;;;6273115;22;20060;-43
2023/10/24 08:21:13;;;;;;;21.30;7.10;;;;;;;;;;6295580;22;20021;-42
2023/10/24 08:23:40;;;;;;;16.60;6.75;;;;;;;;;;6281677;22;20106;-41
2023/10/24 08:26:08;;;;;;;18.48;7.78;;;;;;;;;;6298284;22;20094;-41
2023/10/24 08:28:37;;;;;;;18.70;7.43;;;;;;;;;;6294767;22;20333;-42
2023/10/24 08:31:05;;;;;;;16.70;6.85;;;;;;;;;;6304424;22;20019;-42
2023/10/24 08:33:33;;;;;;;15.82;6.53;;;;;;;;;;6290869;22;20019;-41
2023/10/24 08:36:02;;;;;;;18.88;6.97;;;;;;;;;;6263994;22;20515;-41
2023/10/24 08:38:30;;;;;;;19.40;7.32;;;;;;;;;;6281256;22;20025;-41
2023/10/24 08:40:59;;;;;;;17.60;6.63;;;;;;;;;;6298265;22;20444;-42
2023/10/24 08:43:27;;;;;;;16.38;6.82;;;;;;;;;;6292877;22;20590;-41
2023/10/24 08:45:55;;;;;;;14.55;6.40;;;;;;;;;;6296438;22;20315;-41
2023/10/24 08:48:24;;;;;;;14.68;6.55;;;;;;;;;;6283375;22;20018;-41
2023/10/24 08:50:53;;;;;;;16.58;6.53;;;;;;;;;;6302484;22;20019;-41
2023/10/24 08:53:23;;;;;;;16.57;6.90;;;;;;;;;;6290318;22;20011;-42
2023/10/24 08:55:57;;;;;;;14.60;6.18;;;;;;;;;;6277595;22;20619;-42
2023/10/24 08:58:25;;;;;;;12.77;6.15;;;;;;;;;;6302280;22;20015;-43
2023/10/24 09:00:54;;;;;;;16.33;6.22;;;;;;;;;;6297447;22;20015;-41
2023/10/24 09:03:23;;;;;;;15.35;7.10;;;;;;;;;;6274862;22;20018;-41
2023/10/24 09:05:51;;;;;;;16.80;7.00;;;;;;;;;;6291825;22;20759;-41
2023/10/24 09:08:19;;;;;;;16.50;6.72;;;;;;;;;;6290813;22;20459;-41
2023/10/24 09:10:48;;;;;;;15.88;6.38;;;;;;;;;;6281832;22;20014;-41
2023/10/24 09:13:16;;;;;;;16.60;6.53;;;;;;;;;;6300969;22;20381;-41
2023/10/24 09:15:44;;;;;;;16.70;6.15;;;;;;;;;;6282407;22;20105;-41
2023/10/24 09:18:11;;;;;;;16.90;6.20;;;;;;;;;;6297926;22;20114;-42
2023/10/24 09:20:39;;;;;;;14.70;6.45;;;;;;;;;;6287160;22;20077;-41
2023/10/24 09:23:08;;;;;;;16.73;6.68;;;;;;;;;;6306320;22;20714;-41
2023/10/24 09:25:36;;;;;;;17.17;6.65;;;;;;;;;;6286434;22;20410;-41
2023/10/24 09:28:17;;;;;;;14.15;6.18;;;;;;;;;;6304367;22;20085;-43
2023/10/24 09:30:45;;;;;;;12.60;5.90;;;;;;;;;;6297547;22;20038;-43
2023/10/24 09:33:14;;;;;;;12.95;5.43;;;;;;;;;;6292965;22;20025;-41
2023/10/24 09:35:42;;;;;;;16.70;5.43;;;;;;;;;;6296768;22;20090;-41
2023/10/24 09:38:22;;;;;;;15.90;4.97;;;;;;;;;;6300429;22;20019;-42
2023/10/24 09:40:51;;;;;;;11.70;4.72;;;;;;;;;;6264373;22;20377;-42
2023/10/24 09:43:22;;;;;;;10.50;4.60;;;;;;;;;;6296066;22;20018;-42
2023/10/24 09:45:50;;;;;;;12.27;3.92;;;;;;;;;;6302558;22;20011;-42
2023/10/24 09:48:19;;;;;;;10.25;3.90;;;;;;;;;;6295461;22;20045;-41
2023/10/24 09:50:48;;;;;;;14.55;4.20;;;;;;;;;;6290287;22;20018;-41
2023/10/24 09:53:18;;;;;;;9.30;3.00;;;;;;;;;;6296845;22;20566;-41
2023/10/24 09:55:50;;;;;;;10.60;2.83;;;;;;;;;;6297217;22;20010;-42
2023/10/24 09:58:19;;;;;;;9.10;2.70;;;;;;;;;;6296279;22;20025;-42
2023/10/24 10:00:48;;;;;;;7.47;2.05;;;;;;;;;;6297947;22;20179;-41
2023/10/24 10:03:16;;;;;;;8.32;1.75;;;;;;;;;;6291073;22;20010;-49
2023/10/24 10:05:45;;;;;;;7.47;1.90;;;;;;;;;;6303262;22;20034;-42
2023/10/24 10:08:15;;;;;;;8.90;1.70;;;;;;;;;;6302639;22;20015;-42
2023/10/24 10:10:48;;;;;;;8.32;2.10;;;;;;;;;;6296576;22;20053;-43
2023/10/24 10:13:19;;;;;;;7.65;1.63;;;;;;;;;;6307113;22;20017;-42
2023/10/24 10:15:59;;;;;;;8.15;2.50;;;;;;;;;;6289452;22;20053;-41
2023/10/24 10:18:39;;;;;;;9.38;1.48;;;;;;;;;;6295914;22;20019;-42
2023/10/24 10:21:18;;;;;;;7.00;1.13;;;;;;;;;;6306461;22;20033;-43
2023/10/24 10:23:57;;;;;;;6.78;2.05;;;;;;;;;;6289706;22;20083;-42
2023/10/24 10:26:28;;;;;;;9.82;1.27;;;;;;;;;;6300722;22;20011;-43
2023/10/24 10:29:02;;;;;;;9.77;1.30;;;;;;;;;;6301305;22;20125;-41
2023/10/24 10:31:46;;;;;;;7.80;1.00;;;;;;;;;;6287354;22;20022;-42
2023/10/24 10:34:39;;;;;;;8.57;0.87;;;;;;;;;;6292206;22;20375;-43
2023/10/24 10:37:07;;;;;;;8.32;1.20;;;;;;;;;;6296857;22;20045;-42
2023/10/24 10:39:36;;;;;;;11.45;1.13;;;;;;;;;;6292066;22;20026;-42
2023/10/24 10:42:04;;;;;;;9.48;1.40;;;;;;;;;;6270761;22;20715;-42
2023/10/24 10:44:37;;;;;;;5.13;0.70;;;;;;;;;;6265584;22;20042;-42
2023/10/24 10:47:14;;;;;;;7.67;0.80;;;;;;;;;;6278067;22;20094;-42
2023/10/24 10:49:42;;;;;;;8.27;0.90;;;;;;;;;;6279731;22;20015;-41
2023/10/24 10:52:17;;;;;;;9.70;0.80;;;;;;;;;;6274644;22;20409;-41
2023/10/24 10:54:49;;;;;;;8.18;1.15;;;;;;;;;;6282869;22;20025;-41
2023/10/24 10:57:19;;;;;;;9.82;1.40;;;;;;;;;;6273579;22;20552;-41
2023/10/24 10:59:54;;;;;;;9.83;1.83;;;;;;;;;;6283429;22;20357;-42
2023/10/24 11:02:32;;;;;;;9.25;1.58;;;;;;;;;;6274452;22;20021;-41
2023/10/24 11:05:25;;;;;;;6.00;0.90;;;;;;;;;;6255359;22;20441;-42
2023/10/24 11:07:54;;;;;;;7.00;1.10;;;;;;;;;;6271134;22;20351;-41
2023/10/24 11:10:22;;;;;;;8.10;1.38;;;;;;;;;;6295660;22;20448;-43
2023/10/24 11:12:57;;;;;;;9.03;1.20;;;;;;;;;;6272112;22;20520;-42
2023/10/24 11:15:26;;;;;;;4.50;0.90;;;;;;;;;;6272165;22;20126;-41
2023/10/24 11:17:55;;;;;;;9.73;1.02;;;;;;;;;;6284474;22;20011;-41
2023/10/24 11:20:23;;;;;;;5.47;0.77;;;;;;;;;;6272721;22;20018;-42
2023/10/24 11:22:51;;;;;;;7.72;1.10;;;;;;;;;;6247411;22;20068;-42
2023/10/24 11:25:19;;;;;;;7.60;0.87;;;;;;;;;;6271096;22;20833;-40
2023/10/24 11:27:49;;;;;;;7.50;1.45;;;;;;;;;;6278803;22;20282;-41
2023/10/24 11:30:17;;;;;;;5.80;0.80;;;;;;;;;;6277316;22;20018;-40
2023/10/24 11:32:45;;;;;;;6.43;0.60;;;;;;;;;;6277039;22;20023;-41
2023/10/24 11:35:14;;;;;;;7.85;1.02;;;;;;;;;;6267617;22;20079;-43
2023/10/24 11:37:42;;;;;;;6.70;0.80;;;;;;;;;;6280924;22;20094;-41
2023/10/24 11:40:10;;;;;;;9.07;0.70;;;;;;;;;;6273056;22;20439;-41
2023/10/24 11:42:38;;;;;;;6.90;0.70;;;;;;;;;;6245308;22;20018;-41
2023/10/24 11:45:13;;;;;;;12.43;0.90;;;;;;;;;;6278386;22;20019;-41
2023/10/24 11:47:41;;;;;;;7.78;1.08;;;;;;;;;;6280697;22;20019;-42
2023/10/24 11:50:13;;;;;;;7.13;0.70;;;;;;;;;;6286262;22;20019;-42
2023/10/24 11:52:42;;;;;;;7.07;0.70;;;;;;;;;;6220120;22;20490;-42
2023/10/24 11:55:10;;;;;;;7.95;0.60;;;;;;;;;;6285312;22;20019;-42
2023/10/24 11:57:38;;;;;;;4.50;0.50;;;;;;;;;;6274118;22;20560;-41
2023/10/24 12:00:13;;;;;;;8.60;0.77;;;;;;;;;;6273024;22;20018;-43
2023/10/24 12:02:42;;;;;;;8.83;0.80;;;;;;;;;;6267005;22;20484;-44
2023/10/24 12:05:12;;;;;;;6.03;0.30;;;;;;;;;;6281494;22;20039;-41
2023/10/24 12:07:43;;;;;;;7.00;1.02;;;;;;;;;;6216057;22;20207;-42
2023/10/24 12:10:13;;;;;;;7.15;0.40;;;;;;;;;;6286778;22;20019;-41
2023/10/24 12:12:42;;;;;;;4.72;0.60;;;;;;;;;;6263207;22;20022;-43
2023/10/24 12:15:10;;;;;;;5.33;0.50;;;;;;;;;;6270609;22;20015;-41
2023/10/24 12:17:37;;;;;;;5.78;0.60;;;;;;;;;;6277849;22;20022;-42
2023/10/24 12:20:08;;;;;;;5.35;0.50;;;;;;;;;;6291637;22;20018;-44
2023/10/24 12:22:35;;;;;;;7.75;0.60;;;;;;;;;;6269130;22;20014;-44
2023/10/24 12:25:05;;;;;;;6.13;0.57;;;;;;;;;;6282473;22;20056;-42
2023/10/24 12:27:34;;;;;;;13.97;0.73;;;;;;;;;;6266414;22;20011;-44
2023/10/24 12:30:02;;;;;;;8.40;0.65;;;;;;;;;;6254278;22;20019;-41
2023/10/24 12:32:30;;;;;;;7.05;0.50;;;;;;;;;;6257736;22;20071;-41
2023/10/24 12:34:57;;;;;;;3.55;0.30;;;;;;;;;;6277256;22;20517;-44
2023/10/24 12:37:26;;;;;;;6.18;0.70;;;;;;;;;;6282325;22;20018;-41
2023/10/24 12:39:53;;;;;;;9.60;0.80;;;;;;;;;;6271029;22;20071;-41
2023/10/24 12:42:23;;;;;;;10.00;0.80;;;;;;;;;;6263134;22;20025;-41
2023/10/24 12:44:50;;;;;;;7.90;0.60;;;;;;;;;;6268046;22;20029;-42
2023/10/24 12:47:20;;;;;;;6.28;0.65;;;;;;;;;;6282834;22;20065;-41
2023/10/24 12:49:48;;;;;;;14.43;1.52;;;;;;;;;;6267335;22;20015;-41
2023/10/24 12:52:15;;;;;;;6.67;0.57;;;;;;;;;;6251966;22;20029;-42
2023/10/24 12:54:47;;;;;;;7.00;1.05;;;;;;;;;;6281656;22;20025;-41
2023/10/24 12:57:16;;;;;;;8.30;0.80;;;;;;;;;;6281889;22;20297;-41
2023/10/24 12:59:45;;;;;;;6.55;0.80;;;;;;;;;;6262303;22;20021;-41
2023/10/24 13:02:30;;;;;;;6.07;0.80;;;;;;;;;;6183336;22;20026;-42
2023/10/24 13:05:13;;;;;;;5.87;0.70;;;;;;;;;;6211671;22;20014;-41
2023/10/24 13:07:41;;;;;;;7.07;0.90;;;;;;;;;;6266669;22;20030;-42
2023/10/24 13:10:09;;;;;;;6.47;1.00;;;;;;;;;;6251861;22;20015;-40
2023/10/24 13:12:37;;;;;;;4.90;1.00;;;;;;;;;;6263717;22;20019;-41
2023/10/24 13:15:13;;;;;;;4.80;0.52;;;;;;;;;;6279123;22;20072;-41
2023/10/24 13:17:41;;;;;;;5.10;0.80;;;;;;;;;;6216340;22;20297;-41
2023/10/24 13:20:11;;;;;;;7.75;0.70;;;;;;;;;;6260703;22;20019;-43
2023/10/24 13:22:39;;;;;;;7.82;0.60;;;;;;;;;;6263767;22;20022;-42
2023/10/24 13:25:07;;;;;;;7.45;0.75;;;;;;;;;;6231610;22;20292;-42
2023/10/24 13:27:38;;;;;;;5.00;0.77;;;;;;;;;;6217779;22;20598;-41
2023/10/24 13:30:08;;;;;;;10.77;0.80;;;;;;;;;;6169732;22;20019;-40
2023/10/24 13:32:39;;;;;;;4.88;0.80;;;;;;;;;;6263193;22;20469;-42
2023/10/24 13:35:08;;;;;;;4.63;0.55;;;;;;;;;;6271467;22;20748;-42
2023/10/24 13:37:38;;;;;;;6.82;0.93;;;;;;;;;;6254116;22;20406;-42
2023/10/24 13:40:10;;;;;;;5.00;0.60;;;;;;;;;;6277705;22;20042;-43
2023/10/24 13:42:40;;;;;;;7.73;1.53;;;;;;;;;;6264448;22;20348;-41
2023/10/24 13:45:11;;;;;;;7.65;0.60;;;;;;;;;;6273861;22;20041;-41
2023/10/24 13:47:38;;;;;;;5.38;0.70;;;;;;;;;;6257290;22;20015;-41
2023/10/24 13:50:07;;;;;;;5.43;0.47;;;;;;;;;;6271570;22;20440;-41
2023/10/24 13:52:36;;;;;;;10.23;0.90;;;;;;;;;;6267773;22;20018;-42
2023/10/24 13:55:05;;;;;;;4.67;0.63;;;;;;;;;;6270684;22;20015;-43
2023/10/24 13:57:33;;;;;;;4.82;0.50;;;;;;;;;;6289915;22;20023;-41
2023/10/24 14:00:00;;;;;;;8.98;1.25;;;;;;;;;;6299123;22;20015;-42
2023/10/24 14:02:29;;;;;;;6.00;0.65;;;;;;;;;;6306004;22;20015;-43
2023/10/24 14:04:57;;;;;;;7.45;0.50;;;;;;;;;;6293249;22;20014;-44
2023/10/24 14:07:27;;;;;;;6.07;0.80;;;;;;;;;;6305060;22;20021;-42
2023/10/24 14:09:55;;;;;;;12.70;2.05;;;;;;;;;;6261096;22;20015;-44
2023/10/24 14:12:22;;;;;;;7.10;0.80;;;;;;;;;;6300651;22;20027;-44
2023/10/24 14:14:50;;;;;;;8.07;0.80;;;;;;;;;;6295756;22;20072;-43
2023/10/24 14:17:18;;;;;;;8.38;0.80;;;;;;;;;;6300253;22;20071;-41
2023/10/24 14:19:51;;;;;;;9.03;1.07;;;;;;;;;;6285430;22;20010;-42
2023/10/24 14:22:20;;;;;;;7.50;1.23;;;;;;;;;;6298010;22;20392;-41
2023/10/24 14:24:48;;;;;;;10.55;0.77;;;;;;;;;;6292510;22;20097;-41
2023/10/24 14:27:15;;;;;;;6.60;0.98;;;;;;;;;;6306065;22;20034;-42
2023/10/24 14:29:43;;;;;;;7.78;0.80;;;;;;;;;;6298385;22;20022;-44
2023/10/24 14:32:11;;;;;;;5.57;0.63;;;;;;;;;;6281807;22;20022;-41
2023/10/24 14:34:38;;;;;;;7.47;0.77;;;;;;;;;;6295842;22;20019;-42
2023/10/24 14:37:12;;;;;;;10.55;1.40;;;;;;;;;;6266675;22;20042;-43
2023/10/24 14:39:40;;;;;;;5.53;0.85;;;;;;;;;;6310993;22;20057;-42
2023/10/24 14:42:14;;;;;;;4.75;0.75;;;;;;;;;;6292026;22;20414;-42
2023/10/24 14:44:46;;;;;;;8.50;2.33;;;;;;;;;;6292611;22;20023;-41